sensor_id;sensor_type;location;lat;lon;timestamp;P1;durP1;ratioP1;P2;durP2;ratioP2
9248;SDS011;4660;41.768;26.198;2023-05-24T00:01:15;8.47;;;5.23;;
9248;SDS011;4660;41.768;26.198;2023-05-24T00:03:40;5.37;;;4.87;;
9248;SDS011;4660;41.768;26.198;2023-05-24T00:06:06;8.60;;;4.80;;
9248;SDS011;4660;41.768;26.198;2023-05-24T00:08:32;8.20;;;4.60;;
9248;SDS011;4660;41.768;26.198;2023-05-24T00:10:58;11.33;;;5.03;;
9248;SDS011;4660;41.768;26.198;2023-05-24T00:13:24;7.27;;;5.40;;
9248;SDS011;4660;41.768;26.198;2023-05-24T00:15:50;5.63;;;4.93;;
9248;SDS011;4660;41.768;26.198;2023-05-24T00:18:15;9.27;;;5.17;;
9248;SDS011;4660;41.768;26.198;2023-05-24T00:20:44;8.13;;;5.60;;
9248;SDS011;4660;41.768;26.198;2023-05-24T00:23:10;10.50;;;5.37;;
9248;SDS011;4660;41.768;26.198;2023-05-24T00:25:35;5.27;;;4.77;;
9248;SDS011;4660;41.768;26.198;2023-05-24T00:28:01;12.27;;;5.57;;
9248;SDS011;4660;41.768;26.198;2023-05-24T00:30:26;5.10;;;4.47;;
9248;SDS011;4660;41.768;26.198;2023-05-24T00:32:52;5.50;;;5.00;;
9248;SDS011;4660;41.768;26.198;2023-05-24T00:35:17;7.63;;;5.33;;
9248;SDS011;4660;41.768;26.198;2023-05-24T00:37:43;7.70;;;5.37;;
9248;SDS011;4660;41.768;26.198;2023-05-24T00:40:10;7.63;;;5.17;;
9248;SDS011;4660;41.768;26.198;2023-05-24T00:42:36;8.07;;;4.87;;
9248;SDS011;4660;41.768;26.198;2023-05-24T00:45:02;7.07;;;4.77;;
9248;SDS011;4660;41.768;26.198;2023-05-24T00:47:27;6.83;;;5.00;;
9248;SDS011;4660;41.768;26.198;2023-05-24T00:49:53;6.33;;;5.10;;
9248;SDS011;4660;41.768;26.198;2023-05-24T00:52:19;8.13;;;5.33;;
9248;SDS011;4660;41.768;26.198;2023-05-24T00:54:45;9.97;;;5.10;;
9248;SDS011;4660;41.768;26.198;2023-05-24T00:57:12;6.07;;;5.43;;
9248;SDS011;4660;41.768;26.198;2023-05-24T00:59:38;7.30;;;5.40;;
9248;SDS011;4660;41.768;26.198;2023-05-24T01:02:04;6.37;;;4.83;;
9248;SDS011;4660;41.768;26.198;2023-05-24T01:04:30;5.90;;;5.00;;
9248;SDS011;4660;41.768;26.198;2023-05-24T01:10:29;10.27;;;5.47;;
9248;SDS011;4660;41.768;26.198;2023-05-24T01:18:31;14.70;;;5.17;;
9248;SDS011;4660;41.768;26.198;2023-05-24T01:21:00;5.80;;;4.50;;
9248;SDS011;4660;41.768;26.198;2023-05-24T01:29:09;4.83;;;4.43;;
9248;SDS011;4660;41.768;26.198;2023-05-24T01:31:36;4.83;;;4.33;;
9248;SDS011;4660;41.768;26.198;2023-05-24T01:34:02;15.73;;;5.00;;
9248;SDS011;4660;41.768;26.198;2023-05-24T01:36:28;6.00;;;4.37;;
9248;SDS011;4660;41.768;26.198;2023-05-24T01:38:53;10.47;;;4.97;;
9248;SDS011;4660;41.768;26.198;2023-05-24T01:47:45;6.17;;;4.83;;
9248;SDS011;4660;41.768;26.198;2023-05-24T01:50:01;6.37;;;5.23;;
9248;SDS011;4660;41.768;26.198;2023-05-24T01:52:41;10.90;;;4.70;;
9248;SDS011;4660;41.768;26.198;2023-05-24T01:55:09;10.27;;;4.63;;
9248;SDS011;4660;41.768;26.198;2023-05-24T01:57:39;8.53;;;4.60;;
9248;SDS011;4660;41.768;26.198;2023-05-24T02:00:08;6.17;;;4.50;;
9248;SDS011;4660;41.768;26.198;2023-05-24T02:02:36;12.53;;;4.50;;
9248;SDS011;4660;41.768;26.198;2023-05-24T02:05:02;12.30;;;4.60;;
9248;SDS011;4660;41.768;26.198;2023-05-24T02:07:28;8.03;;;4.83;;
9248;SDS011;4660;41.768;26.198;2023-05-24T02:09:53;8.33;;;5.40;;
9248;SDS011;4660;41.768;26.198;2023-05-24T02:12:19;6.60;;;5.30;;
9248;SDS011;4660;41.768;26.198;2023-05-24T02:14:45;5.23;;;4.63;;
9248;SDS011;4660;41.768;26.198;2023-05-24T02:17:10;9.87;;;5.47;;
9248;SDS011;4660;41.768;26.198;2023-05-24T02:19:35;7.07;;;5.20;;
9248;SDS011;4660;41.768;26.198;2023-05-24T02:22:01;10.47;;;5.30;;
9248;SDS011;4660;41.768;26.198;2023-05-24T02:24:27;9.17;;;5.87;;
9248;SDS011;4660;41.768;26.198;2023-05-24T02:26:53;6.23;;;5.13;;
9248;SDS011;4660;41.768;26.198;2023-05-24T02:29:20;8.43;;;5.80;;
9248;SDS011;4660;41.768;26.198;2023-05-24T02:31:47;7.30;;;5.40;;
9248;SDS011;4660;41.768;26.198;2023-05-24T02:34:16;6.53;;;5.80;;
9248;SDS011;4660;41.768;26.198;2023-05-24T02:36:41;8.03;;;5.97;;
9248;SDS011;4660;41.768;26.198;2023-05-24T02:39:07;10.90;;;5.83;;
9248;SDS011;4660;41.768;26.198;2023-05-24T02:41:33;9.00;;;6.07;;
9248;SDS011;4660;41.768;26.198;2023-05-24T02:43:58;6.80;;;5.10;;
9248;SDS011;4660;41.768;26.198;2023-05-24T02:46:24;9.87;;;6.17;;
9248;SDS011;4660;41.768;26.198;2023-05-24T02:48:50;8.73;;;5.50;;
9248;SDS011;4660;41.768;26.198;2023-05-24T02:51:15;11.93;;;5.83;;
9248;SDS011;4660;41.768;26.198;2023-05-24T02:53:41;8.07;;;5.83;;
9248;SDS011;4660;41.768;26.198;2023-05-24T02:56:07;10.27;;;5.73;;
9248;SDS011;4660;41.768;26.198;2023-05-24T02:58:33;9.63;;;6.47;;
9248;SDS011;4660;41.768;26.198;2023-05-24T03:00:59;12.77;;;6.17;;
9248;SDS011;4660;41.768;26.198;2023-05-24T03:03:25;6.93;;;6.00;;
9248;SDS011;4660;41.768;26.198;2023-05-24T03:05:51;7.17;;;5.30;;
9248;SDS011;4660;41.768;26.198;2023-05-24T03:08:16;9.63;;;5.97;;
9248;SDS011;4660;41.768;26.198;2023-05-24T03:10:42;8.93;;;5.93;;
9248;SDS011;4660;41.768;26.198;2023-05-24T03:13:08;9.93;;;6.30;;
9248;SDS011;4660;41.768;26.198;2023-05-24T03:15:33;6.93;;;5.60;;
9248;SDS011;4660;41.768;26.198;2023-05-24T03:17:58;6.97;;;5.50;;
9248;SDS011;4660;41.768;26.198;2023-05-24T03:20:25;6.23;;;5.57;;
9248;SDS011;4660;41.768;26.198;2023-05-24T03:22:52;7.90;;;6.70;;
9248;SDS011;4660;41.768;26.198;2023-05-24T03:25:17;6.97;;;5.70;;
9248;SDS011;4660;41.768;26.198;2023-05-24T03:27:43;8.43;;;5.87;;
9248;SDS011;4660;41.768;26.198;2023-05-24T03:30:08;5.70;;;5.10;;
9248;SDS011;4660;41.768;26.198;2023-05-24T03:32:34;9.17;;;5.67;;
9248;SDS011;4660;41.768;26.198;2023-05-24T03:35:00;5.53;;;4.77;;
9248;SDS011;4660;41.768;26.198;2023-05-24T03:37:25;8.27;;;4.93;;
9248;SDS011;4660;41.768;26.198;2023-05-24T03:39:51;8.97;;;4.87;;
9248;SDS011;4660;41.768;26.198;2023-05-24T03:42:17;9.23;;;5.43;;
9248;SDS011;4660;41.768;26.198;2023-05-24T03:44:42;9.60;;;5.50;;
9248;SDS011;4660;41.768;26.198;2023-05-24T03:47:08;10.33;;;5.87;;
9248;SDS011;4660;41.768;26.198;2023-05-24T03:49:33;7.90;;;5.90;;
9248;SDS011;4660;41.768;26.198;2023-05-24T03:51:59;7.67;;;5.43;;
9248;SDS011;4660;41.768;26.198;2023-05-24T03:54:25;8.13;;;5.20;;
9248;SDS011;4660;41.768;26.198;2023-05-24T03:56:51;10.57;;;5.70;;
9248;SDS011;4660;41.768;26.198;2023-05-24T03:59:17;7.83;;;5.70;;
9248;SDS011;4660;41.768;26.198;2023-05-24T04:01:43;7.43;;;5.83;;
9248;SDS011;4660;41.768;26.198;2023-05-24T04:04:09;6.60;;;5.90;;
9248;SDS011;4660;41.768;26.198;2023-05-24T04:06:34;12.67;;;6.33;;
9248;SDS011;4660;41.768;26.198;2023-05-24T04:09:01;11.17;;;5.63;;
9248;SDS011;4660;41.768;26.198;2023-05-24T04:11:29;8.67;;;5.80;;
9248;SDS011;4660;41.768;26.198;2023-05-24T04:13:55;11.97;;;6.27;;
9248;SDS011;4660;41.768;26.198;2023-05-24T04:16:22;13.83;;;7.43;;
9248;SDS011;4660;41.768;26.198;2023-05-24T04:18:52;7.87;;;6.63;;
9248;SDS011;4660;41.768;26.198;2023-05-24T04:21:18;9.67;;;6.70;;
9248;SDS011;4660;41.768;26.198;2023-05-24T04:23:44;7.40;;;6.70;;
9248;SDS011;4660;41.768;26.198;2023-05-24T04:26:10;9.33;;;6.50;;
9248;SDS011;4660;41.768;26.198;2023-05-24T04:28:36;8.57;;;7.07;;
9248;SDS011;4660;41.768;26.198;2023-05-24T04:31:05;9.43;;;6.90;;
9248;SDS011;4660;41.768;26.198;2023-05-24T04:33:31;8.10;;;6.70;;
9248;SDS011;4660;41.768;26.198;2023-05-24T04:35:58;8.17;;;6.53;;
9248;SDS011;4660;41.768;26.198;2023-05-24T04:38:26;7.70;;;6.90;;
9248;SDS011;4660;41.768;26.198;2023-05-24T04:41:10;12.80;;;7.37;;
9248;SDS011;4660;41.768;26.198;2023-05-24T04:43:36;10.23;;;7.60;;
9248;SDS011;4660;41.768;26.198;2023-05-24T04:46:02;7.37;;;6.50;;
9248;SDS011;4660;41.768;26.198;2023-05-24T04:48:28;9.80;;;6.33;;
9248;SDS011;4660;41.768;26.198;2023-05-24T04:50:54;9.83;;;6.80;;
9248;SDS011;4660;41.768;26.198;2023-05-24T04:53:21;9.90;;;6.57;;
9248;SDS011;4660;41.768;26.198;2023-05-24T04:55:47;10.43;;;6.47;;
9248;SDS011;4660;41.768;26.198;2023-05-24T04:58:14;7.47;;;6.07;;
9248;SDS011;4660;41.768;26.198;2023-05-24T05:00:40;10.13;;;6.63;;
9248;SDS011;4660;41.768;26.198;2023-05-24T05:03:06;10.70;;;7.23;;
9248;SDS011;4660;41.768;26.198;2023-05-24T05:05:32;8.63;;;6.63;;
9248;SDS011;4660;41.768;26.198;2023-05-24T05:07:59;11.10;;;6.80;;
9248;SDS011;4660;41.768;26.198;2023-05-24T05:10:24;8.50;;;6.60;;
9248;SDS011;4660;41.768;26.198;2023-05-24T05:12:51;8.63;;;6.33;;
9248;SDS011;4660;41.768;26.198;2023-05-24T05:15:16;8.10;;;6.33;;
9248;SDS011;4660;41.768;26.198;2023-05-24T05:17:42;10.37;;;6.80;;
9248;SDS011;4660;41.768;26.198;2023-05-24T05:20:08;9.20;;;7.27;;
9248;SDS011;4660;41.768;26.198;2023-05-24T05:22:34;8.13;;;6.57;;
9248;SDS011;4660;41.768;26.198;2023-05-24T05:24:59;10.70;;;6.90;;
9248;SDS011;4660;41.768;26.198;2023-05-24T05:27:25;7.63;;;6.37;;
9248;SDS011;4660;41.768;26.198;2023-05-24T05:29:51;8.97;;;6.30;;
9248;SDS011;4660;41.768;26.198;2023-05-24T05:32:17;6.93;;;6.20;;
9248;SDS011;4660;41.768;26.198;2023-05-24T05:34:42;8.77;;;6.57;;
9248;SDS011;4660;41.768;26.198;2023-05-24T05:37:08;8.47;;;5.97;;
9248;SDS011;4660;41.768;26.198;2023-05-24T05:39:34;11.60;;;6.63;;
9248;SDS011;4660;41.768;26.198;2023-05-24T05:42:00;9.33;;;7.53;;
9248;SDS011;4660;41.768;26.198;2023-05-24T05:44:26;11.63;;;6.80;;
9248;SDS011;4660;41.768;26.198;2023-05-24T05:46:52;18.33;;;14.63;;
9248;SDS011;4660;41.768;26.198;2023-05-24T05:49:17;12.20;;;10.73;;
9248;SDS011;4660;41.768;26.198;2023-05-24T05:51:44;13.77;;;9.85;;
9248;SDS011;4660;41.768;26.198;2023-05-24T05:54:10;7.80;;;6.97;;
9248;SDS011;4660;41.768;26.198;2023-05-24T05:56:39;7.57;;;6.82;;
9248;SDS011;4660;41.768;26.198;2023-05-24T05:59:12;7.13;;;6.43;;
9248;SDS011;4660;41.768;26.198;2023-05-24T06:01:41;15.30;;;9.93;;
9248;SDS011;4660;41.768;26.198;2023-05-24T06:04:09;9.02;;;8.13;;
9248;SDS011;4660;41.768;26.198;2023-05-24T06:06:35;8.32;;;7.25;;
9248;SDS011;4660;41.768;26.198;2023-05-24T06:09:01;10.35;;;7.90;;
9248;SDS011;4660;41.768;26.198;2023-05-24T06:11:27;20.58;;;12.15;;
9248;SDS011;4660;41.768;26.198;2023-05-24T06:13:52;9.95;;;8.95;;
9248;SDS011;4660;41.768;26.198;2023-05-24T06:16:18;10.50;;;9.40;;
9248;SDS011;4660;41.768;26.198;2023-05-24T06:18:45;11.40;;;8.07;;
9248;SDS011;4660;41.768;26.198;2023-05-24T06:21:14;10.70;;;8.63;;
9248;SDS011;4660;41.768;26.198;2023-05-24T06:23:40;19.85;;;12.48;;
9248;SDS011;4660;41.768;26.198;2023-05-24T06:26:07;11.60;;;10.40;;
9248;SDS011;4660;41.768;26.198;2023-05-24T06:28:34;12.30;;;9.90;;
9248;SDS011;4660;41.768;26.198;2023-05-24T06:31:02;23.88;;;18.77;;
9248;SDS011;4660;41.768;26.198;2023-05-24T06:33:28;28.38;;;22.60;;
9248;SDS011;4660;41.768;26.198;2023-05-24T06:35:55;10.27;;;9.13;;
9248;SDS011;4660;41.768;26.198;2023-05-24T06:38:21;25.92;;;20.40;;
9248;SDS011;4660;41.768;26.198;2023-05-24T06:40:46;10.23;;;9.02;;
9248;SDS011;4660;41.768;26.198;2023-05-24T06:43:12;11.25;;;8.43;;
9248;SDS011;4660;41.768;26.198;2023-05-24T06:45:37;11.57;;;8.63;;
9248;SDS011;4660;41.768;26.198;2023-05-24T06:48:03;10.13;;;8.95;;
9248;SDS011;4660;41.768;26.198;2023-05-24T06:50:29;13.50;;;10.13;;
9248;SDS011;4660;41.768;26.198;2023-05-24T06:52:55;10.32;;;9.32;;
9248;SDS011;4660;41.768;26.198;2023-05-24T06:55:20;9.10;;;8.18;;
9248;SDS011;4660;41.768;26.198;2023-05-24T06:57:46;11.75;;;9.25;;
9248;SDS011;4660;41.768;26.198;2023-05-24T07:00:11;11.27;;;8.82;;
9248;SDS011;4660;41.768;26.198;2023-05-24T07:02:37;9.40;;;7.78;;
9248;SDS011;4660;41.768;26.198;2023-05-24T07:05:04;7.85;;;6.82;;
9248;SDS011;4660;41.768;26.198;2023-05-24T07:07:30;7.88;;;6.85;;
9248;SDS011;4660;41.768;26.198;2023-05-24T07:09:56;9.93;;;7.03;;
9248;SDS011;4660;41.768;26.198;2023-05-24T07:12:22;16.40;;;9.70;;
9248;SDS011;4660;41.768;26.198;2023-05-24T07:14:47;9.60;;;6.28;;
9248;SDS011;4660;41.768;26.198;2023-05-24T07:17:13;7.30;;;5.78;;
9248;SDS011;4660;41.768;26.198;2023-05-24T07:19:40;7.88;;;6.38;;
9248;SDS011;4660;41.768;26.198;2023-05-24T07:22:05;8.48;;;6.38;;
9248;SDS011;4660;41.768;26.198;2023-05-24T07:24:32;9.45;;;6.28;;
9248;SDS011;4660;41.768;26.198;2023-05-24T07:26:58;6.60;;;5.18;;
9248;SDS011;4660;41.768;26.198;2023-05-24T07:29:23;6.93;;;4.95;;
9248;SDS011;4660;41.768;26.198;2023-05-24T07:31:50;6.25;;;5.35;;
9248;SDS011;4660;41.768;26.198;2023-05-24T07:34:17;6.15;;;5.35;;
9248;SDS011;4660;41.768;26.198;2023-05-24T07:36:44;6.57;;;5.97;;
9248;SDS011;4660;41.768;26.198;2023-05-24T07:39:12;10.93;;;6.72;;
9248;SDS011;4660;41.768;26.198;2023-05-24T07:41:40;9.15;;;6.70;;
9248;SDS011;4660;41.768;26.198;2023-05-24T07:44:06;7.55;;;6.75;;
9248;SDS011;4660;41.768;26.198;2023-05-24T07:46:33;8.45;;;6.50;;
9248;SDS011;4660;41.768;26.198;2023-05-24T07:48:59;5.72;;;4.65;;
9248;SDS011;4660;41.768;26.198;2023-05-24T07:51:25;6.85;;;4.90;;
9248;SDS011;4660;41.768;26.198;2023-05-24T07:53:50;5.60;;;5.00;;
9248;SDS011;4660;41.768;26.198;2023-05-24T07:56:16;7.95;;;5.03;;
9248;SDS011;4660;41.768;26.198;2023-05-24T07:58:42;7.55;;;4.65;;
9248;SDS011;4660;41.768;26.198;2023-05-24T08:01:10;6.30;;;5.13;;
9248;SDS011;4660;41.768;26.198;2023-05-24T08:03:37;8.10;;;5.03;;
9248;SDS011;4660;41.768;26.198;2023-05-24T08:06:04;7.00;;;5.18;;
9248;SDS011;4660;41.768;26.198;2023-05-24T08:08:29;12.55;;;5.18;;
9248;SDS011;4660;41.768;26.198;2023-05-24T08:10:55;6.15;;;5.55;;
9248;SDS011;4660;41.768;26.198;2023-05-24T08:13:21;6.72;;;5.60;;
9248;SDS011;4660;41.768;26.198;2023-05-24T08:15:47;5.22;;;4.72;;
9248;SDS011;4660;41.768;26.198;2023-05-24T08:18:12;10.55;;;9.10;;
9248;SDS011;4660;41.768;26.198;2023-05-24T08:20:38;6.65;;;4.45;;
9248;SDS011;4660;41.768;26.198;2023-05-24T08:23:05;16.33;;;13.93;;
9248;SDS011;4660;41.768;26.198;2023-05-24T08:25:30;6.38;;;5.05;;
9248;SDS011;4660;41.768;26.198;2023-05-24T08:27:57;8.27;;;6.65;;
9248;SDS011;4660;41.768;26.198;2023-05-24T08:30:22;8.38;;;7.22;;
9248;SDS011;4660;41.768;26.198;2023-05-24T08:32:49;13.55;;;11.68;;
9248;SDS011;4660;41.768;26.198;2023-05-24T08:35:16;10.63;;;9.15;;
9248;SDS011;4660;41.768;26.198;2023-05-24T08:37:41;8.45;;;4.88;;
9248;SDS011;4660;41.768;26.198;2023-05-24T08:40:09;9.70;;;4.72;;
9248;SDS011;4660;41.768;26.198;2023-05-24T08:42:36;6.00;;;4.70;;
9248;SDS011;4660;41.768;26.198;2023-05-24T08:45:03;9.70;;;8.68;;
9248;SDS011;4660;41.768;26.198;2023-05-24T08:47:34;6.80;;;6.10;;
9248;SDS011;4660;41.768;26.198;2023-05-24T08:50:01;8.95;;;5.50;;
9248;SDS011;4660;41.768;26.198;2023-05-24T08:52:28;6.03;;;5.43;;
9248;SDS011;4660;41.768;26.198;2023-05-24T08:54:59;14.10;;;10.38;;
9248;SDS011;4660;41.768;26.198;2023-05-24T08:57:26;14.45;;;11.35;;
9248;SDS011;4660;41.768;26.198;2023-05-24T08:59:52;7.82;;;6.88;;
9248;SDS011;4660;41.768;26.198;2023-05-24T09:02:21;9.10;;;7.13;;
9248;SDS011;4660;41.768;26.198;2023-05-24T09:04:49;6.00;;;4.85;;
9248;SDS011;4660;41.768;26.198;2023-05-24T09:07:18;7.47;;;4.50;;
9248;SDS011;4660;41.768;26.198;2023-05-24T09:09:49;4.97;;;4.30;;
9248;SDS011;4660;41.768;26.198;2023-05-24T09:12:21;7.47;;;4.47;;
9248;SDS011;4660;41.768;26.198;2023-05-24T09:14:48;5.75;;;5.28;;
9248;SDS011;4660;41.768;26.198;2023-05-24T09:17:14;4.45;;;4.05;;
9248;SDS011;4660;41.768;26.198;2023-05-24T09:19:49;4.72;;;4.32;;
9248;SDS011;4660;41.768;26.198;2023-05-24T09:22:15;7.95;;;4.13;;
9248;SDS011;4660;41.768;26.198;2023-05-24T09:24:51;7.35;;;4.63;;
9248;SDS011;4660;41.768;26.198;2023-05-24T09:27:17;7.85;;;4.32;;
9248;SDS011;4660;41.768;26.198;2023-05-24T09:29:47;5.13;;;4.68;;
9248;SDS011;4660;41.768;26.198;2023-05-24T09:32:16;7.47;;;4.85;;
9248;SDS011;4660;41.768;26.198;2023-05-24T09:34:43;7.07;;;4.90;;
9248;SDS011;4660;41.768;26.198;2023-05-24T09:37:17;4.55;;;3.90;;
9248;SDS011;4660;41.768;26.198;2023-05-24T09:39:48;6.47;;;4.03;;
9248;SDS011;4660;41.768;26.198;2023-05-24T09:42:18;5.97;;;4.55;;
9248;SDS011;4660;41.768;26.198;2023-05-24T09:45:02;4.30;;;3.90;;
9248;SDS011;4660;41.768;26.198;2023-05-24T09:47:37;4.47;;;3.90;;
9248;SDS011;4660;41.768;26.198;2023-05-24T09:50:10;9.05;;;3.63;;
9248;SDS011;4660;41.768;26.198;2023-05-24T09:52:37;7.90;;;3.85;;
9248;SDS011;4660;41.768;26.198;2023-05-24T09:57:40;5.30;;;4.35;;
9248;SDS011;4660;41.768;26.198;2023-05-24T10:00:06;11.02;;;6.70;;
9248;SDS011;4660;41.768;26.198;2023-05-24T10:02:41;7.00;;;5.90;;
9248;SDS011;4660;41.768;26.198;2023-05-24T10:05:11;8.30;;;5.93;;
9248;SDS011;4660;41.768;26.198;2023-05-24T10:07:39;3.95;;;3.40;;
9248;SDS011;4660;41.768;26.198;2023-05-24T10:10:06;6.82;;;3.78;;
9248;SDS011;4660;41.768;26.198;2023-05-24T10:12:33;4.80;;;3.90;;
9248;SDS011;4660;41.768;26.198;2023-05-24T10:15:07;4.13;;;3.40;;
9248;SDS011;4660;41.768;26.198;2023-05-24T10:17:34;5.25;;;3.50;;
9248;SDS011;4660;41.768;26.198;2023-05-24T10:20:00;3.80;;;3.50;;
9248;SDS011;4660;41.768;26.198;2023-05-24T10:22:26;3.60;;;3.30;;
9248;SDS011;4660;41.768;26.198;2023-05-24T10:24:52;4.20;;;3.85;;
9248;SDS011;4660;41.768;26.198;2023-05-24T10:27:23;5.82;;;4.20;;
9248;SDS011;4660;41.768;26.198;2023-05-24T10:30:00;4.43;;;2.83;;
9248;SDS011;4660;41.768;26.198;2023-05-24T10:32:42;4.15;;;3.60;;
9248;SDS011;4660;41.768;26.198;2023-05-24T10:35:09;5.05;;;4.50;;
9248;SDS011;4660;41.768;26.198;2023-05-24T10:37:39;5.28;;;3.90;;
9248;SDS011;4660;41.768;26.198;2023-05-24T10:40:06;4.93;;;3.22;;
9248;SDS011;4660;41.768;26.198;2023-05-24T10:42:41;3.88;;;2.95;;
9248;SDS011;4660;41.768;26.198;2023-05-24T10:47:49;9.77;;;4.38;;
9248;SDS011;4660;41.768;26.198;2023-05-24T10:50:15;5.88;;;3.38;;
9248;SDS011;4660;41.768;26.198;2023-05-24T10:52:42;3.72;;;3.42;;
9248;SDS011;4660;41.768;26.198;2023-05-24T10:55:08;5.25;;;3.38;;
9248;SDS011;4660;41.768;26.198;2023-05-24T10:57:36;2.97;;;2.78;;
9248;SDS011;4660;41.768;26.198;2023-05-24T11:02:59;3.58;;;3.17;;
9248;SDS011;4660;41.768;26.198;2023-05-24T11:05:33;3.17;;;2.88;;
9248;SDS011;4660;41.768;26.198;2023-05-24T11:07:59;5.30;;;2.95;;
9248;SDS011;4660;41.768;26.198;2023-05-24T11:10:29;4.93;;;4.05;;
9248;SDS011;4660;41.768;26.198;2023-05-24T11:12:59;4.28;;;3.40;;
9248;SDS011;4660;41.768;26.198;2023-05-24T11:15:24;3.05;;;2.67;;
9248;SDS011;4660;41.768;26.198;2023-05-24T11:20:33;5.50;;;2.70;;
9248;SDS011;4660;41.768;26.198;2023-05-24T11:23:02;8.43;;;7.50;;
9248;SDS011;4660;41.768;26.198;2023-05-24T11:25:29;3.15;;;2.78;;
9248;SDS011;4660;41.768;26.198;2023-05-24T11:27:57;3.38;;;2.63;;
9248;SDS011;4660;41.768;26.198;2023-05-24T11:30:23;6.97;;;2.90;;
9248;SDS011;4660;41.768;26.198;2023-05-24T11:32:50;3.58;;;2.80;;
9248;SDS011;4660;41.768;26.198;2023-05-24T11:35:17;2.75;;;2.55;;
9248;SDS011;4660;41.768;26.198;2023-05-24T11:37:43;2.97;;;2.50;;
9248;SDS011;4660;41.768;26.198;2023-05-24T11:40:09;2.60;;;2.40;;
9248;SDS011;4660;41.768;26.198;2023-05-24T11:42:36;2.72;;;2.47;;
9248;SDS011;4660;41.768;26.198;2023-05-24T11:45:03;4.03;;;2.70;;
9248;SDS011;4660;41.768;26.198;2023-05-24T11:47:36;4.10;;;2.65;;
9248;SDS011;4660;41.768;26.198;2023-05-24T11:50:02;6.63;;;2.60;;
9248;SDS011;4660;41.768;26.198;2023-05-24T11:52:29;2.67;;;2.47;;
9248;SDS011;4660;41.768;26.198;2023-05-24T11:54:55;3.13;;;2.67;;
9248;SDS011;4660;41.768;26.198;2023-05-24T11:57:22;2.20;;;2.10;;
9248;SDS011;4660;41.768;26.198;2023-05-24T12:00:03;2.83;;;2.63;;
9248;SDS011;4660;41.768;26.198;2023-05-24T12:02:33;3.25;;;2.78;;
9248;SDS011;4660;41.768;26.198;2023-05-24T12:05:07;3.20;;;2.90;;
9248;SDS011;4660;41.768;26.198;2023-05-24T12:07:34;5.05;;;2.60;;
9248;SDS011;4660;41.768;26.198;2023-05-24T12:10:02;5.35;;;3.13;;
9248;SDS011;4660;41.768;26.198;2023-05-24T12:12:28;3.65;;;2.55;;
9248;SDS011;4660;41.768;26.198;2023-05-24T12:14:54;3.42;;;2.13;;
9248;SDS011;4660;41.768;26.198;2023-05-24T12:17:20;6.15;;;2.40;;
9248;SDS011;4660;41.768;26.198;2023-05-24T12:19:47;3.45;;;2.35;;
9248;SDS011;4660;41.768;26.198;2023-05-24T12:22:15;2.92;;;2.33;;
9248;SDS011;4660;41.768;26.198;2023-05-24T12:24:41;3.05;;;2.20;;
9248;SDS011;4660;41.768;26.198;2023-05-24T12:27:06;3.00;;;2.22;;
9248;SDS011;4660;41.768;26.198;2023-05-24T12:29:33;2.97;;;2.72;;
9248;SDS011;4660;41.768;26.198;2023-05-24T12:32:00;2.45;;;2.25;;
9248;SDS011;4660;41.768;26.198;2023-05-24T12:34:26;5.18;;;2.63;;
9248;SDS011;4660;41.768;26.198;2023-05-24T12:36:54;2.50;;;2.30;;
9248;SDS011;4660;41.768;26.198;2023-05-24T12:39:21;4.75;;;2.42;;
9248;SDS011;4660;41.768;26.198;2023-05-24T12:41:49;3.03;;;2.60;;
9248;SDS011;4660;41.768;26.198;2023-05-24T12:44:16;3.28;;;2.33;;
9248;SDS011;4660;41.768;26.198;2023-05-24T12:46:43;11.35;;;2.97;;
9248;SDS011;4660;41.768;26.198;2023-05-24T12:49:09;3.75;;;2.20;;
9248;SDS011;4660;41.768;26.198;2023-05-24T12:51:35;2.42;;;2.13;;
9248;SDS011;4660;41.768;26.198;2023-05-24T12:54:01;5.25;;;2.15;;
9248;SDS011;4660;41.768;26.198;2023-05-24T12:56:28;2.90;;;2.60;;
9248;SDS011;4660;41.768;26.198;2023-05-24T12:58:54;4.22;;;2.53;;
9248;SDS011;4660;41.768;26.198;2023-05-24T13:01:20;4.35;;;2.58;;
9248;SDS011;4660;41.768;26.198;2023-05-24T13:03:49;5.85;;;2.38;;
9248;SDS011;4660;41.768;26.198;2023-05-24T13:06:15;5.35;;;2.75;;
9248;SDS011;4660;41.768;26.198;2023-05-24T13:08:41;6.25;;;2.42;;
9248;SDS011;4660;41.768;26.198;2023-05-24T13:11:07;3.33;;;2.30;;
9248;SDS011;4660;41.768;26.198;2023-05-24T13:13:33;4.70;;;2.58;;
9248;SDS011;4660;41.768;26.198;2023-05-24T13:15:59;6.22;;;2.88;;
9248;SDS011;4660;41.768;26.198;2023-05-24T13:18:25;3.70;;;2.25;;
9248;SDS011;4660;41.768;26.198;2023-05-24T13:20:51;5.72;;;2.97;;
9248;SDS011;4660;41.768;26.198;2023-05-24T13:23:17;3.78;;;2.40;;
9248;SDS011;4660;41.768;26.198;2023-05-24T13:25:43;3.85;;;2.70;;
9248;SDS011;4660;41.768;26.198;2023-05-24T13:28:08;5.07;;;2.65;;
9248;SDS011;4660;41.768;26.198;2023-05-24T13:30:34;4.13;;;2.60;;
9248;SDS011;4660;41.768;26.198;2023-05-24T13:33:00;5.82;;;2.78;;
9248;SDS011;4660;41.768;26.198;2023-05-24T13:35:26;4.60;;;3.10;;
9248;SDS011;4660;41.768;26.198;2023-05-24T13:37:51;7.95;;;2.92;;
9248;SDS011;4660;41.768;26.198;2023-05-24T13:40:18;6.15;;;2.75;;
9248;SDS011;4660;41.768;26.198;2023-05-24T13:42:44;6.20;;;2.88;;
9248;SDS011;4660;41.768;26.198;2023-05-24T13:45:10;7.43;;;5.57;;
9248;SDS011;4660;41.768;26.198;2023-05-24T13:47:36;5.32;;;2.47;;
9248;SDS011;4660;41.768;26.198;2023-05-24T13:50:02;7.47;;;2.58;;
9248;SDS011;4660;41.768;26.198;2023-05-24T13:52:29;6.18;;;2.67;;
9248;SDS011;4660;41.768;26.198;2023-05-24T13:54:54;3.13;;;2.33;;
9248;SDS011;4660;41.768;26.198;2023-05-24T13:57:20;4.00;;;2.75;;
9248;SDS011;4660;41.768;26.198;2023-05-24T13:59:46;2.70;;;2.40;;
9248;SDS011;4660;41.768;26.198;2023-05-24T14:02:12;9.48;;;3.90;;
9248;SDS011;4660;41.768;26.198;2023-05-24T14:04:37;18.30;;;6.57;;
9248;SDS011;4660;41.768;26.198;2023-05-24T14:07:03;10.45;;;5.55;;
9248;SDS011;4660;41.768;26.198;2023-05-24T14:09:29;6.00;;;3.20;;
9248;SDS011;4660;41.768;26.198;2023-05-24T14:11:55;7.28;;;3.55;;
9248;SDS011;4660;41.768;26.198;2023-05-24T14:14:20;7.75;;;3.50;;
9248;SDS011;4660;41.768;26.198;2023-05-24T14:16:46;4.93;;;3.00;;
9248;SDS011;4660;41.768;26.198;2023-05-24T14:19:20;4.72;;;3.08;;
9248;SDS011;4660;41.768;26.198;2023-05-24T14:21:46;4.30;;;3.22;;
9248;SDS011;4660;41.768;26.198;2023-05-24T14:24:11;6.65;;;4.43;;
9248;SDS011;4660;41.768;26.198;2023-05-24T14:26:37;6.45;;;3.17;;
9248;SDS011;4660;41.768;26.198;2023-05-24T14:29:02;6.80;;;3.65;;
9248;SDS011;4660;41.768;26.198;2023-05-24T14:31:28;9.48;;;4.88;;
9248;SDS011;4660;41.768;26.198;2023-05-24T14:33:54;9.85;;;4.30;;
9248;SDS011;4660;41.768;26.198;2023-05-24T14:36:19;13.57;;;11.02;;
9248;SDS011;4660;41.768;26.198;2023-05-24T14:38:45;5.47;;;4.07;;
9248;SDS011;4660;41.768;26.198;2023-05-24T14:41:10;9.75;;;6.47;;
9248;SDS011;4660;41.768;26.198;2023-05-24T14:43:36;7.80;;;4.53;;
9248;SDS011;4660;41.768;26.198;2023-05-24T14:46:02;9.93;;;5.85;;
9248;SDS011;4660;41.768;26.198;2023-05-24T14:48:27;11.93;;;5.30;;
9248;SDS011;4660;41.768;26.198;2023-05-24T14:50:53;7.38;;;4.90;;
9248;SDS011;4660;41.768;26.198;2023-05-24T14:53:18;5.18;;;4.03;;
9248;SDS011;4660;41.768;26.198;2023-05-24T14:55:44;10.90;;;7.72;;
9248;SDS011;4660;41.768;26.198;2023-05-24T14:58:09;7.82;;;6.65;;
9248;SDS011;4660;41.768;26.198;2023-05-24T15:00:36;9.52;;;7.20;;
9248;SDS011;4660;41.768;26.198;2023-05-24T15:03:03;11.75;;;8.65;;
9248;SDS011;4660;41.768;26.198;2023-05-24T15:05:30;7.38;;;5.30;;
9248;SDS011;4660;41.768;26.198;2023-05-24T15:07:55;10.73;;;5.18;;
9248;SDS011;4660;41.768;26.198;2023-05-24T15:10:21;5.47;;;3.63;;
9248;SDS011;4660;41.768;26.198;2023-05-24T15:12:47;8.32;;;4.55;;
9248;SDS011;4660;41.768;26.198;2023-05-24T15:15:12;12.35;;;7.70;;
9248;SDS011;4660;41.768;26.198;2023-05-24T15:17:38;8.43;;;5.57;;
9248;SDS011;4660;41.768;26.198;2023-05-24T15:20:04;9.77;;;7.15;;
9248;SDS011;4660;41.768;26.198;2023-05-24T15:22:31;11.07;;;6.72;;
9248;SDS011;4660;41.768;26.198;2023-05-24T15:24:58;15.85;;;6.90;;
9248;SDS011;4660;41.768;26.198;2023-05-24T15:27:24;9.27;;;6.38;;